Accueil
METAR-TAF:

METAR-TAF

Aéroports :

Aérodrome de Londres Biggin Hill

Londres Biggin Hill, Angleterre

latitude: 51-19N, longitude: 000-02E, altitude: 183 m

Observation

Le bulletin a été fait il y a 29 minutes, à 17:20 UTC
Vent 10 kt de ouest/sud-ouest, variant entre sud et ouest
Température 17°C
Humidité 72%
Pression 1022 hPa
Visibilité 10 km ou plus
Nuages fragmentés à une hauteur de 2100 ft

METAR: EGKB 261720Z 24010KT 180V270 9999 BKN021 17/12 Q1022

Heure: 18:49 (17:49 UTC)

Prévision

Le bulletin a été fait il y a 49 minutes, à 17:00 UTC
Prévision valable du 26 à 18 UTC au 26 à 22 UTC
Vent 11 kt de ouest/sud-ouest
Visibilité 10 km ou plus
Nuages épars à une hauteur de 3000 ft
Probabilité 30% :
Temporairement
du 26 à 20 UTC au 26 à 22 UTC
Nuages fragmentés à une hauteur de 1200 ft

TAF: EGKB 261700Z 2618/2622 24011KT 9999 SCT030 PROB30 TEMPO 2620/2622 BKN012

Observations et prévisions météorologiques de plus de 4000 aéroports (messages METAR et TAF).

Les stations disponibles sont représentées par des disques jaunes et rouges sur la carte.

Passer la souris dessus pour voir le nom de la station.

Cliquer dessus pour voir les observations et prévisions météorologiques.

Pour changer de carte: cliquez sur les boutons verts avec une croix noire pour zoomer, sur le bouton vert avec un tiret pour effectuer un zoom arrière, ou sur les flèches vertes pour les cartes adjacentes.


METAR-TAF: